sensor_id;sensor_type;location;lat;lon;timestamp;P1;durP1;ratioP1;P2;durP2;ratioP2
6378;SDS011;3222;48.858;10.128;2023-03-03T00:02:02;35.53;;;24.20;;
6378;SDS011;3222;48.858;10.128;2023-03-03T00:04:27;40.03;;;25.20;;
6378;SDS011;3222;48.858;10.128;2023-03-03T00:06:53;39.23;;;24.53;;
6378;SDS011;3222;48.858;10.128;2023-03-03T00:09:19;37.77;;;23.57;;
6378;SDS011;3222;48.858;10.128;2023-03-03T00:11:45;38.07;;;24.03;;
6378;SDS011;3222;48.858;10.128;2023-03-03T00:14:21;37.60;;;24.67;;
6378;SDS011;3222;48.858;10.128;2023-03-03T00:16:52;36.20;;;24.03;;
6378;SDS011;3222;48.858;10.128;2023-03-03T00:19:19;36.53;;;24.43;;
6378;SDS011;3222;48.858;10.128;2023-03-03T00:21:46;38.23;;;24.97;;
6378;SDS011;3222;48.858;10.128;2023-03-03T00:24:24;34.23;;;23.83;;
6378;SDS011;3222;48.858;10.128;2023-03-03T00:27:22;40.10;;;24.43;;
6378;SDS011;3222;48.858;10.128;2023-03-03T00:29:56;39.37;;;23.70;;
6378;SDS011;3222;48.858;10.128;2023-03-03T00:32:30;39.70;;;24.37;;
6378;SDS011;3222;48.858;10.128;2023-03-03T00:37:55;36.97;;;24.90;;
6378;SDS011;3222;48.858;10.128;2023-03-03T00:40:38;38.77;;;25.90;;
6378;SDS011;3222;48.858;10.128;2023-03-03T00:43:14;40.93;;;26.27;;
6378;SDS011;3222;48.858;10.128;2023-03-03T00:45:47;37.67;;;25.50;;
6378;SDS011;3222;48.858;10.128;2023-03-03T00:48:21;37.47;;;25.37;;
6378;SDS011;3222;48.858;10.128;2023-03-03T00:50:53;42.20;;;25.97;;
6378;SDS011;3222;48.858;10.128;2023-03-03T00:53:22;39.53;;;25.63;;
6378;SDS011;3222;48.858;10.128;2023-03-03T00:55:49;34.27;;;24.77;;
6378;SDS011;3222;48.858;10.128;2023-03-03T00:58:16;42.00;;;26.83;;
6378;SDS011;3222;48.858;10.128;2023-03-03T01:00:50;40.33;;;25.63;;
6378;SDS011;3222;48.858;10.128;2023-03-03T01:03:20;43.87;;;26.63;;
6378;SDS011;3222;48.858;10.128;2023-03-03T01:05:49;42.83;;;26.60;;
6378;SDS011;3222;48.858;10.128;2023-03-03T01:08:15;42.40;;;25.30;;
6378;SDS011;3222;48.858;10.128;2023-03-03T01:10:43;41.63;;;26.23;;
6378;SDS011;3222;48.858;10.128;2023-03-03T01:13:11;42.53;;;26.10;;
6378;SDS011;3222;48.858;10.128;2023-03-03T01:15:37;42.10;;;25.93;;
6378;SDS011;3222;48.858;10.128;2023-03-03T01:18:04;42.47;;;25.93;;
6378;SDS011;3222;48.858;10.128;2023-03-03T01:20:30;39.03;;;24.80;;
6378;SDS011;3222;48.858;10.128;2023-03-03T01:22:56;38.13;;;24.43;;
6378;SDS011;3222;48.858;10.128;2023-03-03T01:25:21;39.03;;;24.40;;
6378;SDS011;3222;48.858;10.128;2023-03-03T01:27:47;39.17;;;24.90;;
6378;SDS011;3222;48.858;10.128;2023-03-03T01:30:13;41.13;;;25.73;;
6378;SDS011;3222;48.858;10.128;2023-03-03T01:32:39;37.67;;;24.80;;
6378;SDS011;3222;48.858;10.128;2023-03-03T01:35:04;43.60;;;24.80;;
6378;SDS011;3222;48.858;10.128;2023-03-03T01:37:30;41.43;;;26.00;;
6378;SDS011;3222;48.858;10.128;2023-03-03T01:39:58;39.60;;;25.93;;
6378;SDS011;3222;48.858;10.128;2023-03-03T01:42:24;40.17;;;26.33;;
6378;SDS011;3222;48.858;10.128;2023-03-03T01:45:13;40.73;;;26.17;;
6378;SDS011;3222;48.858;10.128;2023-03-03T01:50:34;38.60;;;25.33;;
6378;SDS011;3222;48.858;10.128;2023-03-03T01:53:02;39.23;;;23.67;;
6378;SDS011;3222;48.858;10.128;2023-03-03T01:55:34;40.70;;;24.60;;
6378;SDS011;3222;48.858;10.128;2023-03-03T01:58:03;41.57;;;25.47;;
6378;SDS011;3222;48.858;10.128;2023-03-03T02:00:41;39.10;;;25.60;;
6378;SDS011;3222;48.858;10.128;2023-03-03T02:03:10;41.50;;;25.80;;
6378;SDS011;3222;48.858;10.128;2023-03-03T02:05:36;40.20;;;25.07;;
6378;SDS011;3222;48.858;10.128;2023-03-03T02:08:03;44.13;;;25.27;;
6378;SDS011;3222;48.858;10.128;2023-03-03T02:10:33;44.03;;;24.83;;
6378;SDS011;3222;48.858;10.128;2023-03-03T02:12:59;38.87;;;25.27;;
6378;SDS011;3222;48.858;10.128;2023-03-03T02:15:32;37.90;;;25.27;;
6378;SDS011;3222;48.858;10.128;2023-03-03T02:18:08;39.20;;;25.13;;
6378;SDS011;3222;48.858;10.128;2023-03-03T02:20:52;45.10;;;26.43;;
6378;SDS011;3222;48.858;10.128;2023-03-03T02:23:37;39.40;;;25.67;;
6378;SDS011;3222;48.858;10.128;2023-03-03T02:26:04;43.67;;;26.03;;
6378;SDS011;3222;48.858;10.128;2023-03-03T02:28:37;42.50;;;25.87;;
6378;SDS011;3222;48.858;10.128;2023-03-03T02:31:13;44.77;;;26.43;;
6378;SDS011;3222;48.858;10.128;2023-03-03T02:33:42;41.90;;;26.07;;
6378;SDS011;3222;48.858;10.128;2023-03-03T02:36:13;43.83;;;26.23;;
6378;SDS011;3222;48.858;10.128;2023-03-03T02:41:37;43.03;;;26.13;;
6378;SDS011;3222;48.858;10.128;2023-03-03T02:44:27;43.07;;;26.77;;
6378;SDS011;3222;48.858;10.128;2023-03-03T02:46:55;43.33;;;26.70;;
6378;SDS011;3222;48.858;10.128;2023-03-03T02:49:26;42.77;;;26.27;;
6378;SDS011;3222;48.858;10.128;2023-03-03T02:51:55;39.53;;;25.03;;
6378;SDS011;3222;48.858;10.128;2023-03-03T02:54:23;45.87;;;25.93;;
6378;SDS011;3222;48.858;10.128;2023-03-03T02:56:50;39.57;;;25.07;;
6378;SDS011;3222;48.858;10.128;2023-03-03T02:59:16;44.93;;;26.50;;
6378;SDS011;3222;48.858;10.128;2023-03-03T03:01:46;40.73;;;26.90;;
6378;SDS011;3222;48.858;10.128;2023-03-03T03:04:15;45.23;;;27.20;;
6378;SDS011;3222;48.858;10.128;2023-03-03T03:06:46;41.40;;;25.67;;
6378;SDS011;3222;48.858;10.128;2023-03-03T03:09:13;43.13;;;27.90;;
6378;SDS011;3222;48.858;10.128;2023-03-03T03:11:40;42.03;;;26.53;;
6378;SDS011;3222;48.858;10.128;2023-03-03T03:14:07;47.03;;;27.40;;
6378;SDS011;3222;48.858;10.128;2023-03-03T03:16:34;40.23;;;27.37;;
6378;SDS011;3222;48.858;10.128;2023-03-03T03:19:00;44.80;;;27.47;;
6378;SDS011;3222;48.858;10.128;2023-03-03T03:21:28;42.03;;;27.17;;
6378;SDS011;3222;48.858;10.128;2023-03-03T03:23:54;46.73;;;26.73;;
6378;SDS011;3222;48.858;10.128;2023-03-03T03:26:21;39.13;;;26.50;;
6378;SDS011;3222;48.858;10.128;2023-03-03T03:28:48;42.67;;;27.37;;
6378;SDS011;3222;48.858;10.128;2023-03-03T03:31:15;43.03;;;28.17;;
6378;SDS011;3222;48.858;10.128;2023-03-03T03:33:42;47.30;;;27.13;;
6378;SDS011;3222;48.858;10.128;2023-03-03T03:36:08;49.00;;;27.03;;
6378;SDS011;3222;48.858;10.128;2023-03-03T03:38:34;50.83;;;27.87;;
6378;SDS011;3222;48.858;10.128;2023-03-03T03:41:03;43.87;;;27.83;;
6378;SDS011;3222;48.858;10.128;2023-03-03T03:43:30;43.60;;;26.00;;
6378;SDS011;3222;48.858;10.128;2023-03-03T03:45:56;42.40;;;26.73;;
6378;SDS011;3222;48.858;10.128;2023-03-03T03:48:24;48.60;;;27.13;;
6378;SDS011;3222;48.858;10.128;2023-03-03T03:50:50;43.83;;;26.40;;
6378;SDS011;3222;48.858;10.128;2023-03-03T03:53:17;46.03;;;26.87;;
6378;SDS011;3222;48.858;10.128;2023-03-03T03:55:43;42.00;;;25.73;;
6378;SDS011;3222;48.858;10.128;2023-03-03T03:58:14;40.30;;;27.90;;
6378;SDS011;3222;48.858;10.128;2023-03-03T04:00:43;43.63;;;28.37;;
6378;SDS011;3222;48.858;10.128;2023-03-03T04:03:10;47.60;;;28.90;;
6378;SDS011;3222;48.858;10.128;2023-03-03T04:05:38;47.03;;;28.57;;
6378;SDS011;3222;48.858;10.128;2023-03-03T04:08:05;47.60;;;27.43;;
6378;SDS011;3222;48.858;10.128;2023-03-03T04:10:32;46.87;;;27.13;;
6378;SDS011;3222;48.858;10.128;2023-03-03T04:12:57;41.83;;;27.57;;
6378;SDS011;3222;48.858;10.128;2023-03-03T04:15:23;42.13;;;26.93;;
6378;SDS011;3222;48.858;10.128;2023-03-03T04:17:49;40.93;;;27.00;;
6378;SDS011;3222;48.858;10.128;2023-03-03T04:20:15;41.37;;;27.03;;
6378;SDS011;3222;48.858;10.128;2023-03-03T04:22:43;44.90;;;26.70;;
6378;SDS011;3222;48.858;10.128;2023-03-03T04:25:11;42.70;;;26.97;;
6378;SDS011;3222;48.858;10.128;2023-03-03T04:27:40;41.07;;;26.73;;
6378;SDS011;3222;48.858;10.128;2023-03-03T04:30:08;43.03;;;26.63;;
6378;SDS011;3222;48.858;10.128;2023-03-03T04:32:36;42.07;;;26.77;;
6378;SDS011;3222;48.858;10.128;2023-03-03T04:35:04;47.27;;;27.67;;
6378;SDS011;3222;48.858;10.128;2023-03-03T04:37:31;42.10;;;27.07;;
6378;SDS011;3222;48.858;10.128;2023-03-03T04:39:57;43.33;;;27.83;;
6378;SDS011;3222;48.858;10.128;2023-03-03T04:42:23;42.23;;;27.13;;
6378;SDS011;3222;48.858;10.128;2023-03-03T04:44:49;45.20;;;27.43;;
6378;SDS011;3222;48.858;10.128;2023-03-03T04:47:15;42.33;;;27.47;;
6378;SDS011;3222;48.858;10.128;2023-03-03T04:49:41;45.20;;;27.17;;
6378;SDS011;3222;48.858;10.128;2023-03-03T04:52:07;44.40;;;27.77;;
6378;SDS011;3222;48.858;10.128;2023-03-03T04:54:33;45.67;;;27.27;;
6378;SDS011;3222;48.858;10.128;2023-03-03T04:56:58;44.00;;;27.77;;
6378;SDS011;3222;48.858;10.128;2023-03-03T04:59:24;43.87;;;27.10;;
6378;SDS011;3222;48.858;10.128;2023-03-03T05:01:49;42.80;;;27.87;;
6378;SDS011;3222;48.858;10.128;2023-03-03T05:04:16;44.60;;;29.30;;
6378;SDS011;3222;48.858;10.128;2023-03-03T05:06:41;45.77;;;27.00;;
6378;SDS011;3222;48.858;10.128;2023-03-03T05:09:07;43.30;;;27.63;;
6378;SDS011;3222;48.858;10.128;2023-03-03T05:11:33;46.73;;;27.70;;
6378;SDS011;3222;48.858;10.128;2023-03-03T05:14:00;45.93;;;27.67;;
6378;SDS011;3222;48.858;10.128;2023-03-03T05:16:27;43.63;;;28.40;;
6378;SDS011;3222;48.858;10.128;2023-03-03T05:18:53;42.60;;;27.73;;
6378;SDS011;3222;48.858;10.128;2023-03-03T05:21:18;45.43;;;28.20;;
6378;SDS011;3222;48.858;10.128;2023-03-03T05:23:44;47.37;;;28.37;;
6378;SDS011;3222;48.858;10.128;2023-03-03T05:26:10;55.40;;;28.37;;
6378;SDS011;3222;48.858;10.128;2023-03-03T05:28:35;46.33;;;28.60;;
6378;SDS011;3222;48.858;10.128;2023-03-03T05:31:01;45.97;;;28.17;;
6378;SDS011;3222;48.858;10.128;2023-03-03T05:33:27;48.00;;;29.77;;
6378;SDS011;3222;48.858;10.128;2023-03-03T05:35:55;47.27;;;28.90;;
6378;SDS011;3222;48.858;10.128;2023-03-03T05:38:22;48.27;;;28.93;;
6378;SDS011;3222;48.858;10.128;2023-03-03T05:40:49;49.17;;;27.37;;
6378;SDS011;3222;48.858;10.128;2023-03-03T05:43:15;54.30;;;27.83;;
6378;SDS011;3222;48.858;10.128;2023-03-03T05:45:40;53.60;;;29.70;;
6378;SDS011;3222;48.858;10.128;2023-03-03T05:48:06;47.07;;;29.23;;
6378;SDS011;3222;48.858;10.128;2023-03-03T05:50:35;52.07;;;29.97;;
6378;SDS011;3222;48.858;10.128;2023-03-03T05:53:02;49.73;;;28.70;;
6378;SDS011;3222;48.858;10.128;2023-03-03T05:55:28;47.03;;;26.70;;
6378;SDS011;3222;48.858;10.128;2023-03-03T05:57:54;48.57;;;28.87;;
6378;SDS011;3222;48.858;10.128;2023-03-03T06:00:20;46.07;;;28.43;;
6378;SDS011;3222;48.858;10.128;2023-03-03T06:02:46;49.90;;;28.47;;
6378;SDS011;3222;48.858;10.128;2023-03-03T06:05:12;52.43;;;27.63;;
6378;SDS011;3222;48.858;10.128;2023-03-03T06:07:37;45.07;;;28.83;;
6378;SDS011;3222;48.858;10.128;2023-03-03T06:10:03;48.90;;;28.83;;
6378;SDS011;3222;48.858;10.128;2023-03-03T06:12:33;47.87;;;27.40;;
6378;SDS011;3222;48.858;10.128;2023-03-03T06:14:58;44.30;;;27.40;;
6378;SDS011;3222;48.858;10.128;2023-03-03T06:17:24;47.83;;;28.63;;
6378;SDS011;3222;48.858;10.128;2023-03-03T06:19:50;45.90;;;28.33;;
6378;SDS011;3222;48.858;10.128;2023-03-03T06:22:15;47.90;;;28.23;;
6378;SDS011;3222;48.858;10.128;2023-03-03T06:24:41;45.53;;;27.57;;
6378;SDS011;3222;48.858;10.128;2023-03-03T06:27:07;50.70;;;28.67;;
6378;SDS011;3222;48.858;10.128;2023-03-03T06:29:33;42.10;;;28.07;;
6378;SDS011;3222;48.858;10.128;2023-03-03T06:31:59;53.07;;;28.00;;
6378;SDS011;3222;48.858;10.128;2023-03-03T06:34:24;50.03;;;29.47;;
6378;SDS011;3222;48.858;10.128;2023-03-03T06:36:50;52.90;;;30.20;;
6378;SDS011;3222;48.858;10.128;2023-03-03T06:39:16;44.77;;;29.20;;
6378;SDS011;3222;48.858;10.128;2023-03-03T06:41:42;46.57;;;29.30;;
6378;SDS011;3222;48.858;10.128;2023-03-03T06:44:07;50.63;;;30.60;;
6378;SDS011;3222;48.858;10.128;2023-03-03T06:46:33;50.10;;;30.40;;
6378;SDS011;3222;48.858;10.128;2023-03-03T06:48:59;49.57;;;30.37;;
6378;SDS011;3222;48.858;10.128;2023-03-03T06:51:26;56.07;;;32.73;;
6378;SDS011;3222;48.858;10.128;2023-03-03T06:54:01;49.13;;;31.73;;
6378;SDS011;3222;48.858;10.128;2023-03-03T06:56:30;50.93;;;31.83;;
6378;SDS011;3222;48.858;10.128;2023-03-03T06:59:00;47.00;;;29.93;;
6378;SDS011;3222;48.858;10.128;2023-03-03T07:01:32;50.60;;;27.87;;
6378;SDS011;3222;48.858;10.128;2023-03-03T07:04:00;47.27;;;28.27;;
6378;SDS011;3222;48.858;10.128;2023-03-03T07:06:29;50.30;;;29.33;;
6378;SDS011;3222;48.858;10.128;2023-03-03T07:08:56;49.23;;;30.30;;
6378;SDS011;3222;48.858;10.128;2023-03-03T07:11:22;42.73;;;28.30;;
6378;SDS011;3222;48.858;10.128;2023-03-03T07:13:49;48.60;;;30.13;;
6378;SDS011;3222;48.858;10.128;2023-03-03T07:16:17;47.53;;;28.30;;
6378;SDS011;3222;48.858;10.128;2023-03-03T07:21:21;47.23;;;28.67;;
6378;SDS011;3222;48.858;10.128;2023-03-03T07:23:53;46.67;;;29.77;;
6378;SDS011;3222;48.858;10.128;2023-03-03T07:26:24;49.50;;;30.00;;
6378;SDS011;3222;48.858;10.128;2023-03-03T07:28:57;43.80;;;28.60;;
6378;SDS011;3222;48.858;10.128;2023-03-03T07:34:04;52.53;;;29.67;;
6378;SDS011;3222;48.858;10.128;2023-03-03T07:36:43;47.40;;;29.20;;
6378;SDS011;3222;48.858;10.128;2023-03-03T07:41:50;45.10;;;29.13;;
6378;SDS011;3222;48.858;10.128;2023-03-03T07:44:23;45.93;;;28.93;;
6378;SDS011;3222;48.858;10.128;2023-03-03T07:46:58;46.50;;;29.90;;
6378;SDS011;3222;48.858;10.128;2023-03-03T07:49:36;50.40;;;28.97;;
6378;SDS011;3222;48.858;10.128;2023-03-03T07:54:51;47.07;;;30.03;;
6378;SDS011;3222;48.858;10.128;2023-03-03T08:10:55;50.43;;;29.53;;
6378;SDS011;3222;48.858;10.128;2023-03-03T08:21:04;53.53;;;32.10;;
6378;SDS011;3222;48.858;10.128;2023-03-03T08:23:31;50.63;;;30.77;;
6378;SDS011;3222;48.858;10.128;2023-03-03T08:25:57;49.70;;;31.20;;
6378;SDS011;3222;48.858;10.128;2023-03-03T08:28:22;48.10;;;29.60;;
6378;SDS011;3222;48.858;10.128;2023-03-03T08:30:48;44.93;;;29.90;;
6378;SDS011;3222;48.858;10.128;2023-03-03T08:33:14;45.87;;;29.90;;
6378;SDS011;3222;48.858;10.128;2023-03-03T08:35:41;47.73;;;28.43;;
6378;SDS011;3222;48.858;10.128;2023-03-03T08:38:07;46.97;;;29.03;;
6378;SDS011;3222;48.858;10.128;2023-03-03T08:40:34;42.53;;;28.00;;
6378;SDS011;3222;48.858;10.128;2023-03-03T08:43:00;46.50;;;27.80;;
6378;SDS011;3222;48.858;10.128;2023-03-03T08:45:26;46.20;;;28.97;;
6378;SDS011;3222;48.858;10.128;2023-03-03T08:47:53;44.77;;;28.33;;
6378;SDS011;3222;48.858;10.128;2023-03-03T08:50:19;46.87;;;30.00;;
6378;SDS011;3222;48.858;10.128;2023-03-03T08:52:45;49.23;;;29.57;;
6378;SDS011;3222;48.858;10.128;2023-03-03T08:55:11;47.77;;;29.63;;
6378;SDS011;3222;48.858;10.128;2023-03-03T08:57:37;43.63;;;28.53;;
6378;SDS011;3222;48.858;10.128;2023-03-03T09:00:04;45.67;;;28.10;;
6378;SDS011;3222;48.858;10.128;2023-03-03T09:02:31;44.80;;;28.27;;
6378;SDS011;3222;48.858;10.128;2023-03-03T09:04:57;50.83;;;30.23;;
6378;SDS011;3222;48.858;10.128;2023-03-03T09:07:23;54.57;;;29.13;;
6378;SDS011;3222;48.858;10.128;2023-03-03T09:09:48;46.17;;;28.53;;
6378;SDS011;3222;48.858;10.128;2023-03-03T09:12:18;41.27;;;27.67;;
6378;SDS011;3222;48.858;10.128;2023-03-03T09:14:49;44.80;;;29.13;;
6378;SDS011;3222;48.858;10.128;2023-03-03T09:19:50;44.37;;;27.67;;
6378;SDS011;3222;48.858;10.128;2023-03-03T09:22:21;44.23;;;27.40;;
6378;SDS011;3222;48.858;10.128;2023-03-03T09:24:49;39.43;;;26.07;;
6378;SDS011;3222;48.858;10.128;2023-03-03T09:27:26;46.03;;;27.67;;
6378;SDS011;3222;48.858;10.128;2023-03-03T09:29:53;40.50;;;25.50;;
6378;SDS011;3222;48.858;10.128;2023-03-03T09:32:36;42.07;;;26.47;;
6378;SDS011;3222;48.858;10.128;2023-03-03T09:38:19;39.97;;;25.10;;
6378;SDS011;3222;48.858;10.128;2023-03-03T09:40:55;37.13;;;23.50;;
6378;SDS011;3222;48.858;10.128;2023-03-03T09:44:09;38.53;;;24.10;;
6378;SDS011;3222;48.858;10.128;2023-03-03T09:49:30;36.73;;;24.10;;
6378;SDS011;3222;48.858;10.128;2023-03-03T09:55:02;32.87;;;22.03;;
6378;SDS011;3222;48.858;10.128;2023-03-03T09:57:50;37.30;;;21.70;;
6378;SDS011;3222;48.858;10.128;2023-03-03T10:03:56;31.17;;;20.17;;
6378;SDS011;3222;48.858;10.128;2023-03-03T10:12:04;33.77;;;21.03;;
6378;SDS011;3222;48.858;10.128;2023-03-03T10:14:53;31.60;;;19.87;;
6378;SDS011;3222;48.858;10.128;2023-03-03T10:20:18;31.07;;;20.03;;
6378;SDS011;3222;48.858;10.128;2023-03-03T10:23:03;29.57;;;19.60;;
6378;SDS011;3222;48.858;10.128;2023-03-03T10:26:03;34.33;;;20.37;;
6378;SDS011;3222;48.858;10.128;2023-03-03T10:36:58;30.17;;;20.67;;
6378;SDS011;3222;48.858;10.128;2023-03-03T11:02:15;28.07;;;19.67;;
6378;SDS011;3222;48.858;10.128;2023-03-03T11:05:03;32.63;;;19.73;;
6378;SDS011;3222;48.858;10.128;2023-03-03T11:07:51;30.30;;;19.83;;
6378;SDS011;3222;48.858;10.128;2023-03-03T11:21:50;33.23;;;19.63;;
6378;SDS011;3222;48.858;10.128;2023-03-03T11:32:45;31.27;;;20.13;;
6378;SDS011;3222;48.858;10.128;2023-03-03T11:35:22;31.37;;;20.87;;
6378;SDS011;3222;48.858;10.128;2023-03-03T11:40:54;31.43;;;20.70;;
6378;SDS011;3222;48.858;10.128;2023-03-03T11:43:40;29.53;;;19.83;;
6378;SDS011;3222;48.858;10.128;2023-03-03T11:46:24;29.17;;;20.20;;
6378;SDS011;3222;48.858;10.128;2023-03-03T11:48:58;30.93;;;20.47;;
6378;SDS011;3222;48.858;10.128;2023-03-03T11:51:45;33.60;;;20.47;;
6378;SDS011;3222;48.858;10.128;2023-03-03T11:54:38;28.77;;;18.20;;
6378;SDS011;3222;48.858;10.128;2023-03-03T11:57:19;29.83;;;19.30;;
6378;SDS011;3222;48.858;10.128;2023-03-03T12:00:30;33.80;;;19.13;;
6378;SDS011;3222;48.858;10.128;2023-03-03T12:06:15;29.77;;;20.03;;
6378;SDS011;3222;48.858;10.128;2023-03-03T12:09:03;31.67;;;20.03;;
6378;SDS011;3222;48.858;10.128;2023-03-03T12:12:02;26.50;;;18.77;;
6378;SDS011;3222;48.858;10.128;2023-03-03T12:14:51;26.93;;;18.27;;
6378;SDS011;3222;48.858;10.128;2023-03-03T12:23:16;30.03;;;19.00;;
6378;SDS011;3222;48.858;10.128;2023-03-03T12:28:36;27.33;;;18.93;;
6378;SDS011;3222;48.858;10.128;2023-03-03T12:34:02;30.17;;;20.40;;
6378;SDS011;3222;48.858;10.128;2023-03-03T12:41:50;26.43;;;18.83;;
6378;SDS011;3222;48.858;10.128;2023-03-03T12:47:00;24.87;;;17.87;;
6378;SDS011;3222;48.858;10.128;2023-03-03T12:54:58;25.80;;;18.83;;
6378;SDS011;3222;48.858;10.128;2023-03-03T13:02:59;29.93;;;19.07;;
6378;SDS011;3222;48.858;10.128;2023-03-03T13:08:25;27.23;;;19.43;;
6378;SDS011;3222;48.858;10.128;2023-03-03T13:13:48;29.80;;;19.30;;
6378;SDS011;3222;48.858;10.128;2023-03-03T13:16:27;28.17;;;18.73;;
6378;SDS011;3222;48.858;10.128;2023-03-03T13:19:01;26.87;;;19.10;;
6378;SDS011;3222;48.858;10.128;2023-03-03T13:24:35;29.37;;;20.63;;
6378;SDS011;3222;48.858;10.128;2023-03-03T13:27:36;31.67;;;20.87;;
6378;SDS011;3222;48.858;10.128;2023-03-03T13:32:53;28.97;;;19.80;;
6378;SDS011;3222;48.858;10.128;2023-03-03T13:35:38;30.23;;;20.07;;
6378;SDS011;3222;48.858;10.128;2023-03-03T13:38:05;26.67;;;19.63;;
6378;SDS011;3222;48.858;10.128;2023-03-03T13:40:41;27.53;;;19.77;;
6378;SDS011;3222;48.858;10.128;2023-03-03T13:52:26;28.00;;;18.93;;
6378;SDS011;3222;48.858;10.128;2023-03-03T13:57:42;28.33;;;19.53;;
6378;SDS011;3222;48.858;10.128;2023-03-03T14:05:35;29.03;;;19.90;;
6378;SDS011;3222;48.858;10.128;2023-03-03T14:08:22;26.00;;;19.00;;
6378;SDS011;3222;48.858;10.128;2023-03-03T14:14:18;27.13;;;19.23;;
6378;SDS011;3222;48.858;10.128;2023-03-03T14:19:34;27.47;;;19.30;;
6378;SDS011;3222;48.858;10.128;2023-03-03T14:25:04;29.40;;;20.47;;
6378;SDS011;3222;48.858;10.128;2023-03-03T14:27:40;31.60;;;20.57;;
6378;SDS011;3222;48.858;10.128;2023-03-03T14:30:27;28.90;;;19.20;;
6378;SDS011;3222;48.858;10.128;2023-03-03T14:35:34;31.23;;;19.67;;
6378;SDS011;3222;48.858;10.128;2023-03-03T14:38:07;30.13;;;20.03;;
6378;SDS011;3222;48.858;10.128;2023-03-03T14:40:38;25.73;;;19.87;;
6378;SDS011;3222;48.858;10.128;2023-03-03T14:43:23;26.30;;;19.43;;
6378;SDS011;3222;48.858;10.128;2023-03-03T14:45:52;28.40;;;19.33;;
6378;SDS011;3222;48.858;10.128;2023-03-03T14:53:48;28.13;;;19.80;;
6378;SDS011;3222;48.858;10.128;2023-03-03T14:59:11;29.10;;;19.47;;
6378;SDS011;3222;48.858;10.128;2023-03-03T15:01:45;30.87;;;19.70;;
6378;SDS011;3222;48.858;10.128;2023-03-03T15:06:43;30.33;;;20.77;;
6378;SDS011;3222;48.858;10.128;2023-03-03T15:11:55;26.33;;;20.07;;
6378;SDS011;3222;48.858;10.128;2023-03-03T15:14:34;27.60;;;20.07;;
6378;SDS011;3222;48.858;10.128;2023-03-03T15:25:11;29.13;;;20.40;;
6378;SDS011;3222;48.858;10.128;2023-03-03T15:28:03;31.97;;;20.33;;
6378;SDS011;3222;48.858;10.128;2023-03-03T15:30:46;30.63;;;20.67;;
6378;SDS011;3222;48.858;10.128;2023-03-03T15:36:22;29.90;;;21.70;;
6378;SDS011;3222;48.858;10.128;2023-03-03T15:41:42;30.53;;;20.20;;
6378;SDS011;3222;48.858;10.128;2023-03-03T15:50:03;26.97;;;20.23;;
6378;SDS011;3222;48.858;10.128;2023-03-03T15:53:04;30.57;;;20.27;;
6378;SDS011;3222;48.858;10.128;2023-03-03T15:55:46;29.63;;;21.20;;
6378;SDS011;3222;48.858;10.128;2023-03-03T16:01:12;29.07;;;20.67;;
6378;SDS011;3222;48.858;10.128;2023-03-03T16:03:53;28.20;;;20.37;;
6378;SDS011;3222;48.858;10.128;2023-03-03T16:06:26;29.63;;;20.40;;
6378;SDS011;3222;48.858;10.128;2023-03-03T16:12:29;33.63;;;21.17;;
6378;SDS011;3222;48.858;10.128;2023-03-03T16:17:34;29.53;;;20.73;;
6378;SDS011;3222;48.858;10.128;2023-03-03T16:25:32;29.83;;;21.00;;
6378;SDS011;3222;48.858;10.128;2023-03-03T16:28:15;33.60;;;21.43;;
6378;SDS011;3222;48.858;10.128;2023-03-03T16:31:10;29.77;;;21.23;;
6378;SDS011;3222;48.858;10.128;2023-03-03T16:34:09;32.67;;;20.63;;
6378;SDS011;3222;48.858;10.128;2023-03-03T16:39:31;32.63;;;23.47;;
6378;SDS011;3222;48.858;10.128;2023-03-03T16:42:12;34.20;;;24.20;;
6378;SDS011;3222;48.858;10.128;2023-03-03T16:44:50;33.20;;;23.20;;
6378;SDS011;3222;48.858;10.128;2023-03-03T16:47:32;36.10;;;24.53;;
6378;SDS011;3222;48.858;10.128;2023-03-03T16:53:00;37.27;;;24.63;;
6378;SDS011;3222;48.858;10.128;2023-03-03T16:56:01;37.30;;;25.87;;
6378;SDS011;3222;48.858;10.128;2023-03-03T16:58:46;35.37;;;23.70;;
6378;SDS011;3222;48.858;10.128;2023-03-03T17:01:57;33.93;;;23.27;;
6378;SDS011;3222;48.858;10.128;2023-03-03T17:04:55;36.37;;;24.93;;
6378;SDS011;3222;48.858;10.128;2023-03-03T17:10:16;30.80;;;22.00;;
6378;SDS011;3222;48.858;10.128;2023-03-03T17:15:59;36.00;;;21.50;;
6378;SDS011;3222;48.858;10.128;2023-03-03T17:21:02;31.53;;;20.93;;
6378;SDS011;3222;48.858;10.128;2023-03-03T17:29:32;30.20;;;21.03;;
6378;SDS011;3222;48.858;10.128;2023-03-03T17:45:26;33.30;;;21.87;;
6378;SDS011;3222;48.858;10.128;2023-03-03T17:56:50;32.23;;;21.20;;
6378;SDS011;3222;48.858;10.128;2023-03-03T17:59:43;36.10;;;21.47;;
6378;SDS011;3222;48.858;10.128;2023-03-03T18:08:16;32.13;;;21.43;;
6378;SDS011;3222;48.858;10.128;2023-03-03T18:11:19;36.17;;;21.57;;
6378;SDS011;3222;48.858;10.128;2023-03-03T18:19:37;30.73;;;20.20;;
6378;SDS011;3222;48.858;10.128;2023-03-03T18:25:00;32.80;;;20.80;;
6378;SDS011;3222;48.858;10.128;2023-03-03T18:27:38;33.33;;;21.37;;
6378;SDS011;3222;48.858;10.128;2023-03-03T18:38:42;29.87;;;20.67;;
6378;SDS011;3222;48.858;10.128;2023-03-03T18:48:56;29.73;;;19.00;;
6378;SDS011;3222;48.858;10.128;2023-03-03T18:56:44;26.50;;;19.33;;
6378;SDS011;3222;48.858;10.128;2023-03-03T18:59:31;24.57;;;18.23;;
6378;SDS011;3222;48.858;10.128;2023-03-03T19:02:24;28.00;;;17.43;;
6378;SDS011;3222;48.858;10.128;2023-03-03T19:04:50;28.73;;;18.40;;
6378;SDS011;3222;48.858;10.128;2023-03-03T19:07:30;28.90;;;18.60;;
6378;SDS011;3222;48.858;10.128;2023-03-03T19:18:00;26.63;;;17.13;;
6378;SDS011;3222;48.858;10.128;2023-03-03T19:20:38;27.00;;;17.17;;
6378;SDS011;3222;48.858;10.128;2023-03-03T19:23:11;27.70;;;17.17;;
6378;SDS011;3222;48.858;10.128;2023-03-03T19:25:39;26.83;;;16.77;;
6378;SDS011;3222;48.858;10.128;2023-03-03T19:33:19;28.90;;;17.73;;
6378;SDS011;3222;48.858;10.128;2023-03-03T19:41:33;27.93;;;16.23;;
6378;SDS011;3222;48.858;10.128;2023-03-03T19:44:38;27.83;;;15.63;;
6378;SDS011;3222;48.858;10.128;2023-03-03T19:53:05;28.87;;;16.10;;
6378;SDS011;3222;48.858;10.128;2023-03-03T19:55:52;24.90;;;16.20;;
6378;SDS011;3222;48.858;10.128;2023-03-03T20:01:13;23.57;;;14.80;;
6378;SDS011;3222;48.858;10.128;2023-03-03T20:03:52;23.87;;;15.20;;
6378;SDS011;3222;48.858;10.128;2023-03-03T20:06:42;29.53;;;15.57;;
6378;SDS011;3222;48.858;10.128;2023-03-03T20:12:15;23.40;;;14.87;;
6378;SDS011;3222;48.858;10.128;2023-03-03T20:14:45;24.17;;;15.43;;
6378;SDS011;3222;48.858;10.128;2023-03-03T20:19:55;26.27;;;14.37;;
6378;SDS011;3222;48.858;10.128;2023-03-03T20:22:51;23.67;;;13.70;;
6378;SDS011;3222;48.858;10.128;2023-03-03T20:25:47;20.10;;;13.57;;
6378;SDS011;3222;48.858;10.128;2023-03-03T20:31:08;23.10;;;14.47;;
6378;SDS011;3222;48.858;10.128;2023-03-03T20:33:46;22.07;;;14.03;;
6378;SDS011;3222;48.858;10.128;2023-03-03T20:36:39;21.07;;;13.57;;
6378;SDS011;3222;48.858;10.128;2023-03-03T20:42:35;23.00;;;13.77;;
6378;SDS011;3222;48.858;10.128;2023-03-03T20:48:08;18.90;;;12.90;;
6378;SDS011;3222;48.858;10.128;2023-03-03T20:59:30;23.43;;;12.17;;
6378;SDS011;3222;48.858;10.128;2023-03-03T21:04:44;23.37;;;14.50;;
6378;SDS011;3222;48.858;10.128;2023-03-03T21:07:21;18.77;;;12.57;;
6378;SDS011;3222;48.858;10.128;2023-03-03T21:09:50;19.20;;;12.93;;
6378;SDS011;3222;48.858;10.128;2023-03-03T21:12:39;23.40;;;14.20;;
6378;SDS011;3222;48.858;10.128;2023-03-03T21:18:01;23.83;;;15.07;;
6378;SDS011;3222;48.858;10.128;2023-03-03T21:20:47;22.23;;;14.87;;